Time;durP1;ratioP1;P1;durP2;ratioP2;P2;SDS_P1;SDS_P2;PMS_P1;PMS_P2;Temp;Humidity;BMP_temperature;BMP_pressure;BME280_temperature;BME280_humidity;BME280_pressure;Samples;Min_cycle;Max_cycle;Signal;HPM_P1;HPM_P2
2023/05/07 00:00:54;;;;;;;1.50;1.38;;;11.60;99.90;;;;;;5133141;28;20045;-69
2023/05/07 00:03:31;;;;;;;1.77;1.65;;;11.60;99.90;;;;;;5133939;28;20042;-70
2023/05/07 00:06:02;;;;;;;2.58;1.50;;;11.60;99.90;;;;;;5130142;28;20057;-67
2023/05/07 00:08:34;;;;;;;1.60;1.50;;;11.60;99.90;;;;;;5136557;28;20042;-69
2023/05/07 00:11:10;;;;;;;3.95;1.73;;;11.50;99.90;;;;;;5136106;28;20058;-69
2023/05/07 00:13:44;;;;;;;1.30;1.20;;;11.50;99.90;;;;;;5135482;28;20042;-70
2023/05/07 00:16:20;;;;;;;1.45;1.35;;;11.40;99.90;;;;;;5133877;28;20149;-72
2023/05/07 00:18:53;;;;;;;1.38;1.27;;;11.40;99.90;;;;;;5120235;28;20045;-68
2023/05/07 00:21:27;;;;;;;1.52;1.42;;;11.30;99.90;;;;;;5134993;28;20022;-70
2023/05/07 00:24:03;;;;;;;;;;;11.20;99.90;;;;;;5136679;28;20056;-69
2023/05/07 00:26:40;;;;;;;1.20;1.10;;;11.20;99.90;;;;;;5151426;28;19917;-71
2023/05/07 00:29:12;;;;;;;2.10;1.10;;;11.20;99.90;;;;;;5134992;28;20047;-67
2023/05/07 00:31:46;;;;;;;1.40;1.30;;;11.20;99.90;;;;;;5118046;28;20085;-71
2023/05/07 00:34:23;;;;;;;1.27;1.20;;;11.20;99.90;;;;;;5119902;28;20034;-69
2023/05/07 00:36:57;;;;;;;1.35;1.25;;;11.10;99.90;;;;;;5136849;28;20042;-65
2023/05/07 00:39:36;;;;;;;1.45;1.35;;;11.10;99.90;;;;;;5107111;28;20190;-68
2023/05/07 00:42:14;;;;;;;1.30;1.20;;;11.10;99.90;;;;;;5130825;28;20064;-69
2023/05/07 00:44:46;;;;;;;1.20;1.10;;;11.10;99.90;;;;;;5132990;28;20050;-66
2023/05/07 00:47:18;;;;;;;1.35;1.25;;;11.10;99.90;;;;;;5130191;28;20042;-70
2023/05/07 00:49:50;;;;;;;1.52;1.20;;;11.00;99.90;;;;;;5115864;28;20058;-70
2023/05/07 00:52:27;;;;;;;1.33;1.23;;;11.00;99.90;;;;;;5099009;28;20061;-68
2023/05/07 00:55:06;;;;;;;1.40;1.30;;;11.00;99.90;;;;;;5128933;28;20054;-70
2023/05/07 00:57:41;;;;;;;0.98;0.98;;;11.00;99.90;;;;;;5091876;28;20049;-70
2023/05/07 01:00:14;;;;;;;1.33;1.23;;;10.90;99.90;;;;;;5148713;28;20054;-70
2023/05/07 01:02:46;;;;;;;1.48;1.38;;;11.00;99.90;;;;;;5212682;23;20050;-66
2023/05/07 01:05:34;;;;;;;2.13;1.92;;;10.90;99.90;;;;;;5175391;28;20210;-70
2023/05/07 01:08:10;;;;;;;1.50;1.40;;;10.90;99.90;;;;;;5156016;28;20072;-68
2023/05/07 01:10:45;;;;;;;1.40;1.30;;;10.90;99.90;;;;;;5172102;28;20033;-69
2023/05/07 01:13:21;;;;;;;1.42;1.10;;;10.90;99.90;;;;;;5153478;28;20052;-68
2023/05/07 01:15:53;;;;;;;1.20;1.10;;;10.80;99.90;;;;;;5168049;28;20045;-70
2023/05/07 01:18:26;;;;;;;1.35;1.25;;;10.80;99.90;;;;;;5153458;28;20047;-69
2023/05/07 01:21:00;;;;;;;1.35;1.25;;;10.80;99.90;;;;;;5170600;28;20048;-70
2023/05/07 01:23:38;;;;;;;1.58;1.48;;;10.80;99.90;;;;;;5171118;28;20056;-66
2023/05/07 01:26:16;;;;;;;1.30;1.27;;;10.80;99.90;;;;;;5137341;28;20375;-69
2023/05/07 01:28:47;;;;;;;1.65;1.55;;;10.70;99.90;;;;;;5137473;28;20045;-68
2023/05/07 01:31:24;;;;;;;1.33;1.23;;;10.80;99.90;;;;;;5167414;28;20069;-69
2023/05/07 01:33:59;;;;;;;1.27;1.27;;;10.80;99.90;;;;;;5154445;28;20246;-69
2023/05/07 01:36:32;;;;;;;1.40;1.33;;;10.80;99.90;;;;;;5149564;28;20049;-68
2023/05/07 01:39:05;;;;;;;1.63;1.52;;;10.80;99.90;;;;;;5166179;28;20518;-68
2023/05/07 01:41:42;;;;;;;1.40;1.30;;;10.70;99.90;;;;;;5179782;28;20040;-68
2023/05/07 01:44:16;;;;;;;1.88;1.30;;;10.60;99.90;;;;;;5186246;28;20052;-68
2023/05/07 01:46:49;;;;;;;3.70;1.30;;;10.70;99.90;;;;;;5180826;28;20426;-68
2023/05/07 01:49:21;;;;;;;1.70;1.60;;;10.70;99.90;;;;;;5173592;28;20037;-67
2023/05/07 01:51:53;;;;;;;1.70;1.60;;;10.60;99.90;;;;;;5149752;28;20048;-69
2023/05/07 01:54:29;;;;;;;1.67;1.55;;;10.70;99.90;;;;;;5187130;28;20034;-69
2023/05/07 01:57:05;;;;;;;1.45;1.35;;;10.70;99.90;;;;;;5171162;28;20042;-68
2023/05/07 01:59:40;;;;;;;1.35;1.25;;;10.70;99.90;;;;;;5167268;28;20049;-68
2023/05/07 02:02:14;;;;;;;1.27;1.17;;;10.70;99.90;;;;;;5181138;28;20037;-65
2023/05/07 02:04:51;;;;;;;1.73;1.63;;;10.60;99.90;;;;;;5152597;28;20054;-69
2023/05/07 02:07:25;;;;;;;2.70;1.55;;;10.60;99.90;;;;;;5143582;28;20033;-67
2023/05/07 02:09:59;;;;;;;4.65;1.60;;;10.60;99.90;;;;;;5137252;28;20038;-66
2023/05/07 02:12:31;;;;;;;1.65;1.55;;;10.60;99.90;;;;;;5150158;28;20053;-68
2023/05/07 02:15:08;;;;;;;1.85;1.42;;;10.60;99.90;;;;;;5166130;28;20041;-69
2023/05/07 02:18:09;;;;;;;1.95;1.50;;;10.50;99.90;;;;;;5149823;28;20049;-69
2023/05/07 02:20:44;;;;;;;1.83;1.73;;;10.40;99.90;;;;;;5133032;28;20057;-66
2023/05/07 02:23:18;;;;;;;2.03;1.42;;;10.40;99.90;;;;;;5151160;28;20054;-65
2023/05/07 02:25:52;;;;;;;;;;;10.30;99.90;;;;;;5137238;28;20045;-67
2023/05/07 02:28:23;;;;;;;1.98;1.40;;;10.40;99.90;;;;;;5169153;28;19984;-67
2023/05/07 02:30:55;;;;;;;1.20;1.10;;;10.30;99.90;;;;;;5150073;28;20041;-69
2023/05/07 02:33:27;;;;;;;1.35;1.25;;;10.30;99.90;;;;;;5147354;28;20268;-68
2023/05/07 02:36:17;;;;;;;1.50;1.40;;;10.30;99.90;;;;;;5168840;28;20415;-64
2023/05/07 02:38:53;;;;;;;1.55;1.30;;;10.30;99.90;;;;;;5135185;28;20625;-69
2023/05/07 02:41:32;;;;;;;1.88;1.75;;;10.40;99.90;;;;;;5168921;28;20045;-69
2023/05/07 02:44:07;;;;;;;1.98;1.88;;;10.50;99.90;;;;;;5155560;28;20053;-67
2023/05/07 02:46:41;;;;;;;2.47;2.28;;;10.60;99.90;;;;;;5156681;28;20056;-69
2023/05/07 02:49:15;;;;;;;1.60;1.50;;;10.70;99.90;;;;;;5140043;28;20354;-67
2023/05/07 02:51:47;;;;;;;1.92;1.75;;;10.80;99.90;;;;;;5126468;28;20046;-67
2023/05/07 02:54:18;;;;;;;2.13;1.92;;;10.80;99.90;;;;;;5172791;28;20034;-68
2023/05/07 02:56:53;;;;;;;2.15;2.00;;;10.80;99.90;;;;;;5176985;28;20041;-63
2023/05/07 02:59:29;;;;;;;2.17;1.98;;;10.90;99.90;;;;;;5149192;28;20068;-67
2023/05/07 03:02:08;;;;;;;2.20;1.98;;;11.00;99.90;;;;;;5184066;28;20038;-67
2023/05/07 03:04:40;;;;;;;2.55;2.35;;;11.10;99.90;;;;;;5166924;28;20053;-66
2023/05/07 03:07:14;;;;;;;2.33;2.13;;;11.10;99.90;;;;;;5158098;28;20521;-69
2023/05/07 03:09:46;;;;;;;3.15;2.22;;;11.10;99.90;;;;;;5139917;28;20040;-68
2023/05/07 03:12:20;;;;;;;3.60;2.78;;;11.00;99.90;;;;;;5173602;28;20034;-69
2023/05/07 03:14:52;;;;;;;4.35;2.55;;;11.00;99.90;;;;;;5188435;28;20048;-68
2023/05/07 03:17:26;;;;;;;2.60;2.40;;;11.10;99.90;;;;;;5176200;28;20047;-68
2023/05/07 03:20:03;;;;;;;4.55;3.90;;;11.20;99.90;;;;;;5144792;28;20136;-63
2023/05/07 03:22:40;;;;;;;3.40;2.67;;;11.30;99.90;;;;;;5178070;28;20051;-68
2023/05/07 03:25:13;;;;;;;3.45;2.83;;;11.40;99.90;;;;;;5176611;28;20498;-66
2023/05/07 03:27:45;;;;;;;4.80;2.80;;;11.50;99.90;;;;;;5152305;28;20336;-68
2023/05/07 03:30:21;;;;;;;3.35;2.72;;;11.60;99.90;;;;;;5153848;28;20262;-68
2023/05/07 03:32:58;;;;;;;4.43;3.33;;;11.60;99.90;;;;;;5135543;28;20046;-67
2023/05/07 03:35:32;;;;;;;4.43;3.10;;;11.70;99.90;;;;;;5147867;28;20048;-67
2023/05/07 03:38:07;;;;;;;4.75;3.97;;;11.60;99.90;;;;;;5155212;28;20054;-69
2023/05/07 03:40:38;;;;;;;4.05;3.38;;;11.70;99.90;;;;;;5178465;28;20051;-69
2023/05/07 03:43:10;;;;;;;5.30;3.40;;;11.70;99.90;;;;;;5149087;28;20068;-67
2023/05/07 03:45:48;;;;;;;5.95;3.03;;;11.70;99.90;;;;;;5156537;28;20045;-67
2023/05/07 03:48:24;;;;;;;3.92;3.42;;;11.80;99.90;;;;;;5143703;28;20350;-66
2023/05/07 03:50:58;;;;;;;5.75;3.58;;;11.70;99.90;;;;;;5145200;28;20053;-69
2023/05/07 03:53:29;;;;;;;4.13;3.07;;;11.70;99.90;;;;;;5143882;28;20041;-68
2023/05/07 03:56:01;;;;;;;4.72;3.90;;;11.70;99.90;;;;;;5172746;28;20030;-68
2023/05/07 03:58:33;;;;;;;4.65;3.53;;;11.80;99.90;;;;;;5122851;28;20042;-70
2023/05/07 04:01:11;;;;;;;4.68;2.90;;;11.80;99.90;;;;;;5147470;28;20049;-67
2023/05/07 04:03:44;;;;;;;5.47;4.60;;;11.80;99.90;;;;;;5121237;28;20046;-68
2023/05/07 04:06:18;;;;;;;4.53;3.47;;;11.90;99.90;;;;;;5122791;28;20047;-68
2023/05/07 04:08:52;;;;;;;5.70;4.53;;;12.00;99.90;;;;;;5099598;28;20054;-67
2023/05/07 04:11:26;;;;;;;7.35;4.22;;;12.10;99.90;;;;;;5114039;28;20047;-66
2023/05/07 04:14:01;;;;;;;5.47;4.10;;;12.20;99.90;;;;;;5126714;28;20041;-65
2023/05/07 04:16:35;;;;;;;8.05;5.53;;;12.40;99.90;;;;;;5122046;28;20484;-70
2023/05/07 04:19:07;;;;;;;6.57;5.18;;;12.40;99.90;;;;;;5090875;28;20054;-69
2023/05/07 04:21:43;;;;;;;5.75;5.20;;;12.50;99.90;;;;;;5100990;28;20373;-66
2023/05/07 04:24:20;;;;;;;9.27;5.55;;;12.60;99.90;;;;;;5100320;28;20051;-68
2023/05/07 04:27:01;;;;;;;6.35;5.60;;;12.80;99.90;;;;;;5085776;28;20043;-68
2023/05/07 04:29:38;;;;;;;6.00;4.97;;;12.90;99.90;;;;;;5103321;28;20681;-66
2023/05/07 04:32:12;;;;;;;6.43;5.13;;;12.90;99.90;;;;;;5117716;28;20056;-69
2023/05/07 04:34:47;;;;;;;6.90;5.00;;;13.00;99.90;;;;;;5137703;28;20040;-71
2023/05/07 04:37:23;;;;;;;6.38;5.35;;;13.10;99.90;;;;;;5115825;28;20157;-68
2023/05/07 04:39:56;;;;;;;8.10;6.32;;;13.20;99.90;;;;;;5154921;28;20030;-68
2023/05/07 04:42:29;;;;;;;6.95;5.40;;;13.30;99.90;;;;;;5147229;28;20549;-66
2023/05/07 04:45:02;;;;;;;9.15;5.20;;;13.40;99.90;;;;;;5172275;28;20048;-66
2023/05/07 04:47:36;;;;;;;7.68;5.80;;;13.40;99.90;;;;;;5186375;28;20042;-71
2023/05/07 04:50:08;;;;;;;7.72;5.55;;;13.40;99.90;;;;;;5156979;28;20040;-68
2023/05/07 04:52:42;;;;;;;7.32;5.03;;;13.50;99.90;;;;;;5162626;28;20042;-68
2023/05/07 04:55:16;;;;;;;8.40;5.05;;;13.40;99.90;;;;;;5152477;28;20049;-69
2023/05/07 04:57:48;;;;;;;8.02;4.75;;;13.60;99.90;;;;;;5151698;28;20372;-69
2023/05/07 05:00:25;;;;;;;7.35;5.25;;;13.70;99.90;;;;;;5134503;28;20510;-65
2023/05/07 05:02:56;;;;;;;8.15;6.38;;;13.80;99.90;;;;;;5151323;28;20060;-65
2023/05/07 05:05:32;;;;;;;9.63;6.60;;;13.80;99.90;;;;;;5152153;28;20053;-69
2023/05/07 05:08:04;;;;;;;6.22;5.10;;;13.80;99.90;;;;;;5160763;28;20055;-67
2023/05/07 05:10:36;;;;;;;5.88;4.95;;;13.90;99.90;;;;;;5161097;28;20079;-68
2023/05/07 05:13:12;;;;;;;7.88;5.50;;;13.90;99.90;;;;;;5140075;28;20241;-67
2023/05/07 05:15:44;;;;;;;7.30;5.70;;;14.00;99.90;;;;;;5158260;28;20041;-67
2023/05/07 05:18:15;;;;;;;9.50;5.53;;;14.10;99.90;;;;;;5159522;28;20045;-67
2023/05/07 05:20:47;;;;;;;11.35;6.82;;;14.40;99.90;;;;;;5175960;28;20520;-67
2023/05/07 05:23:21;;;;;;;9.20;6.07;;;14.60;99.90;;;;;;5175822;28;20049;-68
2023/05/07 05:25:58;;;;;;;8.45;6.57;;;14.90;99.90;;;;;;5159689;28;20059;-69
2023/05/07 05:28:35;;;;;;;8.63;5.35;;;14.90;99.90;;;;;;5161852;28;20056;-68
2023/05/07 05:31:09;;;;;;;7.32;5.45;;;14.80;99.90;;;;;;5170200;28;20429;-69
2023/05/07 05:33:41;;;;;;;10.13;6.80;;;14.70;99.90;;;;;;5168748;28;20265;-68
2023/05/07 05:36:13;;;;;;;8.60;5.93;;;14.60;99.90;;;;;;5141240;28;20049;-69
2023/05/07 05:38:47;;;;;;;9.15;5.95;;;14.40;99.90;;;;;;5156133;28;20048;-66
2023/05/07 05:41:19;;;;;;;10.60;7.15;;;14.40;99.90;;;;;;5138571;28;20055;-69
2023/05/07 05:43:53;;;;;;;9.40;5.72;;;14.30;99.90;;;;;;5142377;28;20056;-69
2023/05/07 05:46:24;;;;;;;;;;;14.20;99.90;;;;;;5141286;28;20041;-68
2023/05/07 05:48:59;;;;;;;9.82;5.68;;;14.20;99.90;;;;;;5171551;28;19920;-67
2023/05/07 05:51:31;;;;;;;9.13;6.05;;;14.30;99.90;;;;;;5141322;28;20515;-67
2023/05/07 05:54:12;;;;;;;11.02;6.97;;;14.40;99.90;;;;;;5171087;28;20049;-71
2023/05/07 05:56:49;;;;;;;12.45;7.20;;;14.30;99.90;;;;;;5155119;28;20443;-68
2023/05/07 05:59:28;;;;;;;9.65;6.35;;;14.20;99.90;;;;;;5130231;28;20038;-68
2023/05/07 06:02:01;;;;;;;9.55;7.10;;;14.00;99.90;;;;;;5172852;28;20508;-67
2023/05/07 06:04:33;;;;;;;9.57;6.90;;;14.00;99.90;;;;;;5148857;28;20054;-68
2023/05/07 06:07:07;;;;;;;9.45;7.20;;;14.00;99.90;;;;;;5176211;28;20034;-68
2023/05/07 06:09:41;;;;;;;9.05;5.97;;;14.10;99.90;;;;;;5135764;28;20038;-70
2023/05/07 06:12:16;;;;;;;;;;;14.20;99.90;;;;;;5172487;28;20033;-68
2023/05/07 06:14:47;;;;;;;10.07;6.70;;;14.40;99.90;;;;;;5161538;28;20391;-66
2023/05/07 06:17:22;;;;;;;12.95;7.97;;;14.50;99.90;;;;;;5161583;28;20037;-68
2023/05/07 06:19:54;;;;;;;13.48;9.65;;;14.40;99.90;;;;;;5160785;28;20094;-69
2023/05/07 06:22:28;;;;;;;13.77;8.95;;;14.50;99.90;;;;;;5166438;28;20030;-69
2023/05/07 06:25:02;;;;;;;11.18;8.65;;;14.60;99.90;;;;;;5152985;28;20041;-68
2023/05/07 06:27:34;;;;;;;10.70;6.95;;;14.90;99.90;;;;;;5164550;28;20389;-67
2023/05/07 06:30:09;;;;;;;11.82;8.02;;;15.10;99.90;;;;;;5169143;28;20595;-70
2023/05/07 06:32:41;;;;;;;12.65;8.73;;;15.00;99.90;;;;;;5168137;28;20038;-69
2023/05/07 06:35:15;;;;;;;11.07;8.15;;;14.90;99.90;;;;;;5168814;28;20045;-69
2023/05/07 06:37:53;;;;;;;11.65;7.95;;;14.90;99.90;;;;;;5138044;28;20042;-69
2023/05/07 06:40:33;;;;;;;12.63;7.85;;;15.10;99.90;;;;;;5171178;28;20034;-69
2023/05/07 06:43:12;;;;;;;12.43;7.68;;;15.60;99.90;;;;;;5156106;28;20046;-68
2023/05/07 06:45:44;;;;;;;11.02;7.70;;;15.90;90.50;;;;;;5158903;28;20046;-68
2023/05/07 06:48:16;;;;;;;11.68;7.55;;;16.10;32.60;;;;;;5136515;28;20324;-67
2023/05/07 06:50:47;;;;;;;12.30;7.43;;;16.10;94.80;;;;;;5136763;28;20045;-69
2023/05/07 06:53:18;;;;;;;13.52;8.18;;;16.00;91.50;;;;;;5137247;28;20037;-71
2023/05/07 06:55:50;;;;;;;14.70;8.23;;;16.20;57.40;;;;;;5151838;28;20047;-69
2023/05/07 06:58:27;;;;;;;12.32;7.70;;;16.00;13.50;;;;;;5169382;28;20042;-69
2023/05/07 07:01:01;;;;;;;11.55;8.90;;;15.90;99.90;;;;;;5151075;28;20041;-68
2023/05/07 07:03:40;;;;;;;9.15;7.22;;;16.00;34.50;;;;;;5153471;28;20281;-68
2023/05/07 07:06:17;;;;;;;11.00;7.25;;;16.50;92.70;;;;;;5160754;28;20245;-67
2023/05/07 07:08:54;;;;;;;10.88;7.63;;;17.00;1.00;;;;;;5133533;28;20060;-67
2023/05/07 07:11:29;;;;;;;12.38;7.22;;;17.20;1.00;;;;;;5118438;28;20034;-70
2023/05/07 07:14:03;;;;;;;11.95;7.63;;;17.20;1.00;;;;;;5164694;28;20326;-68
2023/05/07 07:16:39;;;;;;;9.85;7.13;;;16.70;1.00;;;;;;5150366;28;20045;-66
2023/05/07 07:19:15;;;;;;;10.65;7.28;;;17.00;1.00;;;;;;5182494;28;20081;-69
2023/05/07 07:21:46;;;;;;;11.85;7.18;;;17.00;1.00;;;;;;5169495;28;20368;-70
2023/05/07 07:24:21;;;;;;;10.07;6.90;;;16.70;1.00;;;;;;5153550;28;20048;-69
2023/05/07 07:26:52;;;;;;;;;;;16.80;1.00;;;;;;5147289;28;20038;-70
2023/05/07 07:29:26;;;;;;;9.63;7.03;;;16.70;1.00;;;;;;5147503;28;19921;-69
2023/05/07 07:31:58;;;;;;;10.73;7.63;;;16.70;1.00;;;;;;5165349;28;20037;-67
2023/05/07 07:34:32;;;;;;;12.50;6.78;;;16.70;1.00;;;;;;5156427;28;20034;-66
2023/05/07 07:37:05;;;;;;;11.88;7.32;;;17.10;1.00;;;;;;5122153;28;20053;-69
2023/05/07 07:39:39;;;;;;;9.57;6.78;;;17.40;1.00;;;;;;5154760;28;20044;-71
2023/05/07 07:42:13;;;;;;;10.35;7.85;;;17.50;1.00;;;;;;5137956;28;20042;-67
2023/05/07 07:44:48;;;;;;;10.32;7.10;;;17.70;1.00;;;;;;5164305;28;20585;-69
2023/05/07 07:47:19;;;;;;;8.88;6.70;;;18.20;1.00;;;;;;5153236;28;20079;-69
2023/05/07 07:49:53;;;;;;;12.27;7.78;;;18.20;1.00;;;;;;5139021;28;20039;-70
2023/05/07 07:52:28;;;;;;;9.10;7.50;;;17.60;1.00;;;;;;5172505;28;20029;-67
2023/05/07 07:55:04;;;;;;;10.07;7.47;;;17.20;1.00;;;;;;5168905;28;20061;-68
2023/05/07 07:57:39;;;;;;;9.40;7.63;;;17.20;1.00;;;;;;5155859;28;20235;-67
2023/05/07 08:00:16;;;;;;;;;;;17.20;1.00;;;;;;5164409;28;20045;-72
2023/05/07 08:02:51;;;;;;;13.18;7.32;;;17.10;1.00;;;;;;5136069;28;19920;-69
2023/05/07 08:05:26;;;;;;;9.80;6.72;;;16.90;1.00;;;;;;5145637;28;20327;-68
2023/05/07 08:07:58;;;;;;;9.18;6.75;;;16.80;1.00;;;;;;5154946;28;20038;-69
2023/05/07 08:10:33;;;;;;;10.15;6.80;;;16.90;1.00;;;;;;5186406;28;20269;-68
2023/05/07 08:13:05;;;;;;;12.50;7.45;;;16.90;1.00;;;;;;5149636;28;20160;-68
2023/05/07 08:15:37;;;;;;;12.20;7.35;;;17.20;1.00;;;;;;5161217;28;20439;-69
2023/05/07 08:18:14;;;;;;;9.75;6.95;;;17.70;1.00;;;;;;5153488;28;20054;-69
2023/05/07 08:20:46;;;;;;;10.18;7.10;;;17.80;1.00;;;;;;5168177;28;20033;-69
2023/05/07 08:23:23;;;;;;;8.40;6.13;;;17.70;1.00;;;;;;5138861;28;20046;-67
2023/05/07 08:25:55;;;;;;;8.98;6.45;;;17.30;1.00;;;;;;5149163;28;20045;-68
2023/05/07 08:28:26;;;;;;;10.80;7.40;;;16.90;1.00;;;;;;5148261;28;20060;-68
2023/05/07 08:31:00;;;;;;;8.88;6.40;;;16.70;1.00;;;;;;5184038;28;20058;-70
2023/05/07 08:33:32;;;;;;;10.45;6.88;;;16.50;1.00;;;;;;5153163;28;20050;-67
2023/05/07 08:36:09;;;;;;;10.48;6.38;;;16.70;1.00;;;;;;5175502;28;20041;-68
2023/05/07 08:38:45;;;;;;;11.68;6.78;;;16.80;1.00;;;;;;5186950;28;20318;-69
2023/05/07 08:41:20;;;;;;;11.45;7.70;;;16.70;1.00;;;;;;5144664;28;20054;-67
2023/05/07 08:43:54;;;;;;;8.70;6.70;;;16.90;1.00;;;;;;5148849;28;20280;-65
2023/05/07 08:46:35;;;;;;;9.95;7.00;;;17.10;1.00;;;;;;5149944;28;20200;-66
2023/05/07 08:49:07;;;;;;;7.95;5.75;;;17.10;1.00;;;;;;5166653;28;20498;-68
2023/05/07 08:51:42;;;;;;;7.82;6.05;;;17.50;1.00;;;;;;5139751;28;20049;-69
2023/05/07 08:54:19;;;;;;;;;;;17.60;1.00;;;;;;5156690;28;20042;-66
2023/05/07 08:56:51;;;;;;;7.60;5.75;;;18.00;1.00;;;;;;5157887;28;19920;-67
2023/05/07 08:59:23;;;;;;;8.38;6.18;;;18.60;1.00;;;;;;5158004;28;20319;-66
2023/05/07 09:01:57;;;;;;;8.90;5.78;;;19.10;1.00;;;;;;5167473;28;20299;-67
2023/05/07 09:04:28;;;;;;;7.72;5.78;;;19.90;1.00;;;;;;5179079;28;20044;-67
2023/05/07 09:07:05;;;;;;;6.82;5.32;;;20.60;99.90;;;;;;5159592;28;20165;-66
2023/05/07 09:09:37;;;;;;;9.80;6.20;;;19.80;1.00;;;;;;5158129;28;20044;-67
2023/05/07 09:12:09;;;;;;;8.27;5.78;;;19.40;1.00;;;;;;5143315;28;20254;-70
2023/05/07 09:14:43;;;;;;;7.30;5.07;;;20.00;1.00;;;;;;5160229;28;20381;-67
2023/05/07 09:17:20;;;;;;;9.48;6.22;;;19.80;1.00;;;;;;5172725;28;20075;-68
2023/05/07 09:19:55;;;;;;;9.23;5.30;;;19.50;1.00;;;;;;5144522;28;20420;-68
2023/05/07 09:22:33;;;;;;;9.48;6.07;;;19.80;1.00;;;;;;5171975;28;20033;-69
2023/05/07 09:25:14;;;;;;;8.60;5.38;;;20.40;99.90;;;;;;5171621;28;20334;-69
2023/05/07 09:27:45;;;;;;;9.02;6.45;;;20.40;99.90;;;;;;5163909;28;20255;-65
2023/05/07 09:30:17;;;;;;;7.63;5.47;;;19.50;99.90;;;;;;5165009;28;20064;-67
2023/05/07 09:32:51;;;;;;;7.32;5.22;;;20.10;1.00;;;;;;5169826;28;20578;-66
2023/05/07 09:35:27;;;;;;;9.35;5.57;;;20.70;1.00;;;;;;5171521;28;20052;-70
2023/05/07 09:38:05;;;;;;;9.93;5.82;;;20.70;99.90;;;;;;5157437;28;20041;-68
2023/05/07 09:40:41;;;;;;;8.93;5.13;;;20.60;1.00;;;;;;5171120;28;20052;-69
2023/05/07 09:43:14;;;;;;;6.75;5.45;;;21.30;1.00;;;;;;5151103;28;20354;-69
2023/05/07 09:45:51;;;;;;;6.18;4.65;;;20.90;99.90;;;;;;5151326;28;20056;-70
2023/05/07 09:48:23;;;;;;;7.10;5.00;;;21.30;1.00;;;;;;5152647;28;20033;-69
2023/05/07 09:50:59;;;;;;;7.22;5.53;;;20.80;99.90;;;;;;5168005;28;20037;-67
2023/05/07 09:53:33;;;;;;;11.07;5.10;;;20.70;1.00;;;;;;5164559;28;20585;-69
2023/05/07 09:56:05;;;;;;;6.35;4.85;;;21.50;1.00;;;;;;5149586;28;20049;-69
2023/05/07 09:58:41;;;;;;;8.45;5.20;;;21.90;1.00;;;;;;5132614;28;20053;-68
2023/05/07 10:01:13;;;;;;;8.00;5.10;;;22.50;1.00;;;;;;5146303;28;20048;-68
2023/05/07 10:03:46;;;;;;;6.90;4.97;;;22.80;1.00;;;;;;5135768;28;20046;-69
2023/05/07 10:06:25;;;;;;;7.82;4.97;;;22.00;99.90;;;;;;5158654;28;20045;-70
2023/05/07 10:09:00;;;;;;;7.20;4.68;;;22.10;1.00;;;;;;5150923;28;20230;-67
2023/05/07 10:11:35;;;;;;;6.55;4.82;;;22.80;32.20;;;;;;5167189;28;20053;-68
2023/05/07 10:14:08;;;;;;;6.80;5.05;;;23.60;99.90;;;;;;5151560;28;20050;-68
2023/05/07 10:16:43;;;;;;;7.85;5.07;;;23.50;99.90;;;;;;5148014;28;20167;-68
2023/05/07 10:19:15;;;;;;;4.75;3.53;;;23.70;1.00;;;;;;5151469;28;20435;-71
2023/05/07 10:22:02;;;;;;;5.28;4.43;;;24.20;99.90;;;;;;5148732;28;20041;-70
2023/05/07 10:24:36;;;;;;;7.97;5.22;;;24.40;99.90;;;;;;5133594;28;20080;-69
2023/05/07 10:27:10;;;;;;;;;;;22.80;61.80;;;;;;5136862;28;20044;-70
2023/05/07 10:30:21;;;;;;;5.90;4.10;;;22.00;99.90;;;;;;5166105;28;19917;-69
2023/05/07 10:32:57;;;;;;;6.70;5.35;;;22.70;1.00;;;;;;5168569;28;20042;-66
2023/05/07 10:35:36;;;;;;;6.18;4.10;;;23.70;99.90;;;;;;5145196;28;20046;-72
2023/05/07 10:38:12;;;;;;;8.57;5.13;;;25.50;1.00;;;;;;5150522;28;20380;-70
2023/05/07 10:40:44;;;;;;;5.13;3.80;;;25.60;99.90;;;;;;5150977;28;20831;-69
2023/05/07 10:43:15;;;;;;;8.27;4.47;;;25.30;1.00;;;;;;5168411;28;20029;-70
2023/05/07 10:46:18;;;;;;;5.15;3.92;;;26.80;99.90;;;;;;5131945;28;20166;-69
2023/05/07 10:49:02;;;;;;;5.57;4.00;;;27.40;99.90;;;;;;5168038;28;20021;-69
2023/05/07 10:51:41;;;;;;;6.55;4.57;;;27.60;1.00;;;;;;5150025;28;20044;-71
2023/05/07 10:54:12;;;;;;;5.05;3.20;;;26.80;99.90;;;;;;5166933;28;20042;-70
2023/05/07 10:56:44;;;;;;;6.15;3.80;;;27.00;99.90;;;;;;5171455;28;20037;-65
2023/05/07 10:59:30;;;;;;;6.15;4.57;;;27.10;99.90;;;;;;5171960;28;20041;-69
2023/05/07 11:02:06;;;;;;;5.50;3.85;;;26.80;99.90;;;;;;5146996;28;20523;-70
2023/05/07 11:04:44;;;;;;;4.63;3.17;;;27.60;99.90;;;;;;5147156;28;20071;-71
2023/05/07 11:07:28;;;;;;;6.40;4.07;;;28.90;99.90;;;;;;5139133;28;20052;-69
2023/05/07 11:10:03;;;;;;;4.47;3.13;;;28.00;11.70;;;;;;5171521;28;20049;-70
2023/05/07 11:12:38;;;;;;;5.43;3.90;;;28.10;99.90;;;;;;5139458;28;20041;-72
2023/05/07 11:15:19;;;;;;;4.85;3.42;;;28.30;1.00;;;;;;5153349;28;20256;-70
2023/05/07 11:17:57;;;;;;;4.07;3.30;;;27.90;99.90;;;;;;5165424;28;20139;-72
2023/05/07 11:20:51;;;;;;;4.65;3.35;;;29.20;68.70;;;;;;5190790;28;20034;-70
2023/05/07 11:23:35;;;;;;;3.45;3.00;;;28.10;1.00;;;;;;5174229;28;20356;-72
2023/05/07 11:26:12;;;;;;;4.87;3.47;;;27.30;1.00;;;;;;5174904;28;20195;-71
2023/05/07 11:28:44;;;;;;;5.03;3.80;;;26.40;1.00;;;;;;5168385;28;20511;-66
2023/05/07 11:31:23;;;;;;;4.53;3.65;;;25.30;1.00;;;;;;5153323;28;20049;-70
2023/05/07 11:34:03;;;;;;;;;;;24.50;99.90;;;;;;5175081;28;20037;-69
2023/05/07 11:36:35;;;;;;;11.40;4.65;;;23.70;1.00;;;;;;5172528;28;20236;-69
2023/05/07 11:39:31;;;;;;;5.90;3.95;;;23.30;99.90;;;;;;5172903;28;20047;-69
2023/05/07 11:42:03;;;;;;;5.97;4.68;;;23.30;91.80;;;;;;5169803;28;20056;-69
2023/05/07 11:44:45;;;;;;;4.68;3.50;;;23.80;1.00;;;;;;5155380;28;20306;-70
2023/05/07 11:47:18;;;;;;;4.72;3.80;;;23.70;1.00;;;;;;5152148;28;20041;-68
2023/05/07 11:49:53;;;;;;;5.68;4.47;;;22.90;33.10;;;;;;5170281;28;20059;-69
2023/05/07 11:52:25;;;;;;;5.15;3.83;;;22.60;80.20;;;;;;5155879;28;20310;-70
2023/05/07 11:55:19;;;;;;;6.75;4.60;;;22.10;99.90;;;;;;5179985;28;20036;-72
2023/05/07 11:57:50;;;;;;;4.57;3.97;;;22.00;99.90;;;;;;5155766;28;20206;-72
2023/05/07 12:00:22;;;;;;;3.88;3.35;;;22.30;99.90;;;;;;5167874;28;20048;-72
2023/05/07 12:02:56;;;;;;;11.63;4.60;;;22.90;99.90;;;;;;5154126;28;20029;-71
2023/05/07 12:05:29;;;;;;;7.38;3.88;;;23.20;99.90;;;;;;5145045;28;20072;-70
2023/05/07 12:08:00;;;;;;;6.15;3.90;;;23.20;99.90;;;;;;5135153;28;20267;-71
2023/05/07 12:10:35;;;;;;;4.85;3.75;;;22.90;1.00;;;;;;5155367;28;20056;-68
2023/05/07 12:13:18;;;;;;;5.18;3.83;;;22.30;99.90;;;;;;5137982;28;20262;-68
2023/05/07 12:15:59;;;;;;;4.10;3.67;;;22.40;99.90;;;;;;5167615;28;20044;-71
2023/05/07 12:18:36;;;;;;;6.82;4.43;;;22.40;99.90;;;;;;5168105;28;20045;-70
2023/05/07 12:21:08;;;;;;;5.30;3.80;;;22.40;99.90;;;;;;5164728;28;20076;-71
2023/05/07 12:23:40;;;;;;;6.15;4.22;;;23.80;99.90;;;;;;5150041;28;20049;-70
2023/05/07 12:26:12;;;;;;;4.60;3.70;;;24.10;99.90;;;;;;5152262;28;20045;-70
2023/05/07 12:28:47;;;;;;;4.68;3.47;;;23.60;1.00;;;;;;5167465;28;20063;-73
2023/05/07 12:31:22;;;;;;;;;;;24.30;99.90;;;;;;5170378;28;20029;-72
2023/05/07 12:33:53;;;;;;;;;;;24.60;99.90;;;;;;5175086;28;19917;-72
2023/05/07 12:36:37;;;;;;;6.50;4.40;;;24.50;99.90;;;;;;5186987;28;19924;-66
2023/05/07 12:39:09;;;;;;;7.55;4.63;;;22.90;1.00;;;;;;5197048;28;20625;-68
2023/05/07 12:42:01;;;;;;;6.18;3.95;;;21.30;99.90;;;;;;5168509;28;20040;-67
2023/05/07 12:44:38;;;;;;;6.03;3.92;;;21.70;99.90;;;;;;5153911;28;20069;-70
2023/05/07 12:47:15;;;;;;;6.85;4.63;;;22.10;99.90;;;;;;5134851;28;20041;-70
2023/05/07 12:49:50;;;;;;;4.63;3.92;;;22.00;99.90;;;;;;5169862;28;20055;-72
2023/05/07 12:52:21;;;;;;;5.63;4.07;;;22.60;99.90;;;;;;5153951;28;20046;-70
2023/05/07 12:54:58;;;;;;;6.32;3.88;;;21.70;99.90;;;;;;5169628;28;20036;-72
2023/05/07 12:57:51;;;;;;;5.10;3.58;;;21.20;99.90;;;;;;5169699;28;20033;-67
2023/05/07 13:00:53;;;;;;;5.32;3.58;;;21.40;99.90;;;;;;5150902;28;20033;-71
2023/05/07 13:03:33;;;;;;;5.88;4.00;;;20.80;99.90;;;;;;5124129;28;20050;-69
2023/05/07 13:06:12;;;;;;;4.22;3.75;;;20.60;99.90;;;;;;5113063;28;20395;-70
2023/05/07 13:08:44;;;;;;;4.57;3.75;;;20.40;1.00;;;;;;5124215;28;20047;-68
2023/05/07 13:11:16;;;;;;;5.45;3.50;;;20.40;1.00;;;;;;5107824;28;20034;-71
2023/05/07 13:13:48;;;;;;;4.85;3.78;;;20.60;1.00;;;;;;5091054;28;20046;-71
2023/05/07 13:16:19;;;;;;;4.53;3.50;;;20.80;99.90;;;;;;5115514;28;20047;-68
2023/05/07 13:18:52;;;;;;;4.63;3.42;;;20.90;99.90;;;;;;5115411;28;20087;-69
2023/05/07 13:21:24;;;;;;;3.88;3.33;;;21.30;1.00;;;;;;5104418;28;20047;-70
2023/05/07 13:23:55;;;;;;;4.45;3.42;;;21.90;99.90;;;;;;5099572;28;20046;-70
2023/05/07 13:26:27;;;;;;;5.20;3.15;;;22.50;99.90;;;;;;5103055;28;20152;-71
2023/05/07 13:28:58;;;;;;;3.85;2.97;;;22.90;99.90;;;;;;5102254;28;20041;-73
2023/05/07 13:31:30;;;;;;;6.60;4.22;;;24.10;99.90;;;;;;5080514;29;20055;-70